• Join FlightAware (Why Join?)
  • Login
  • US Flag 
 
12:38PM EST


 

Airport Tracker/Info


-or-


 

Live Flight TrackerFlight Track Log ✈ DAL1562 ✈ 10-Apr-2013 ✈ KPHL - KDTW

Flight Track Log - Related Links

Times and Time Zones

All times are in EDT time to prevent confusion due to time zone crossing. See the DAL1562 flight status page for this flight to view local times or setup timezone preferences in your user account.

Time Position Orientation Groundspeed Altitude Reporting Facility
EDT Latitude Longitude Course Direction KTS MPH feet Rate Location/Type
08:06PM 39.8600 -75.2794 260° West 186 214 800  Level FAA TRACON SMA TRACON (SMA)
08:06PM 39.8567 -75.3033 260° West 177 204 2,300 2,700 Climbing FAA TRACON SMA TRACON (SMA)
08:07PM 39.8525 -75.3261 257° West 213 245 2,600 1,560 Climbing FAA TRACON SMA TRACON (SMA)
08:07PM 39.8431 -75.3786 257° West 245 282 3,900 2,400 Climbing FAA TRACON SMA TRACON (SMA)
08:08PM 39.8358 -75.4128 255° West 255 293 5,000 3,120 Climbing FAA TRACON SMA TRACON (SMA)
08:08PM 39.8333 -75.4419 264° West 262 302 6,000 2,820 Climbing FAA TRACON SMA TRACON (SMA)
08:08PM 39.8344 -75.4706 273° West 264 304 6,900 3,300 Climbing FAA TRACON SMA TRACON (SMA)
08:09PM 39.8383 -75.5078 278° West 264 304 8,200 3,420 Climbing FAA TRACON SMA TRACON (SMA)
08:09PM 39.8406 -75.5367 276° West 263 303 9,200 2,400 Climbing FAA TRACON SMA TRACON (SMA)
08:09PM 39.8431 -75.5658 276° West 263 303 9,800 1,320 Climbing FAA TRACON SMA TRACON (SMA)
08:10PM 39.8469 -75.6028 278° West 265 305 10,100 420 Climbing FAA TRACON SMA TRACON (SMA)
08:10PM 39.8506 -75.6339 279° West 278 320 10,100  Level FAA TRACON SMA TRACON (SMA)
08:10PM 39.8558 -75.6681 281° West 308 354 10,100  Level FAA TRACON SMA TRACON (SMA)
08:11PM 39.8586 -75.7086 275° West 297 342 10,100 120 Level FAA TRACON SMA TRACON (SMA)
08:11PM 39.8619 -75.7414 278° West 297 342 10,200 1,200 Climbing FAA TRACON SMA TRACON (SMA)
08:11PM 39.8658 -75.7744 279° West 299 344 10,900 2,100 Climbing FAA TRACON SMA TRACON (SMA)
08:12PM 39.8711 -75.8150 280° West 301 346 11,600 2,820 Climbing FAA TRACON SMA TRACON (SMA)
08:12PM 39.8733 -75.8489 275° West 309 356 12,800 3,720 Climbing FAA TRACON SMA TRACON (SMA)
08:12PM 39.8764 -75.8850 276° West 307 353 14,100 3,420 Climbing FAA TRACON SMA TRACON (SMA)
08:13PM 39.8806 -75.9256 278° West 300 345 15,100 2,400 Climbing FAA TRACON SMA TRACON (SMA)
08:13PM 39.8839 -75.9583 278° West 298 343 15,700 1,920 Climbing FAA TRACON SMA TRACON (SMA)
08:13PM 39.8875 -75.9917 278° West 302 348 16,400 2,100 Climbing FAA TRACON SMA TRACON (SMA)
08:14PM 39.8928 -76.0339 279° West 306 352 17,100 2,220 Climbing FAA TRACON SMA TRACON (SMA)
08:14PM 39.8956 -76.0697 276° West 313 360 17,900 1,320 Climbing FAA TRACON SMA TRACON (SMA)
08:14PM 39.8961 -76.0783 275° West 314 361 18,000 1,020 Climbing FAA TRACON SMA TRACON (SMA)
08:16PM 39.9161 -76.3222 276° West 358 412 20,000 1,140 Climbing New York Center
08:17PM 39.9258 -76.4664 275° West 387 445 21,100 1,200 Climbing New York Center
08:18PM 39.9019 -76.6161 258° West 403 464 22,400 1,320 Climbing New York Center
08:19PM 39.8756 -76.7681 257° West 423 487 23,700 1,260 Climbing New York Center
08:20PM 39.8589 -76.8911 260° West 435 501 25,000 1,500 Climbing New York Center
08:21PM 39.8261 -77.0775 257° West 442 509 26,700 1,500 Climbing New York Center
08:22PM 39.8011 -77.2319 258° West 448 516 28,000 360 Climbing New York Center
08:24PM 39.7553 -77.5369 259° West 431 496 28,000  Level Cleveland Center
08:25PM 39.7322 -77.6919 259° West 431 496 28,000  Level Cleveland Center
08:26PM 39.7111 -77.8439 260° West 431 496 28,000  Level Cleveland Center
08:27PM 39.7231 -77.9947 276° West 422 486 28,000  Level Cleveland Center
08:28PM 39.7803 -78.1331 298° West 422 486 28,000  Level Cleveland Center
08:29PM 39.8458 -78.2847 299° West 430 495 28,000  Level Cleveland Center
08:30PM 39.9092 -78.4206 301° West 430 495 28,000  Level Cleveland Center
08:31PM 39.9906 -78.5400 312° West 439 505 28,000  Level Cleveland Center
08:32PM 40.0939 -78.6156 331° Northwest 418 481 28,000  Level Cleveland Center
08:33PM 40.2050 -78.6503 347° North 412 474 28,000  Level Cleveland Center
08:34PM 40.3203 -78.6906 345° North 410 472 28,000  Level Cleveland Center
08:35PM 40.4314 -78.7256 347° North 415 478 28,000  Level Cleveland Center
08:36PM 40.5467 -78.7606 347° North 415 478 28,000  Level Cleveland Center
08:37PM 40.6556 -78.7958 346° North 415 478 28,000  Level Cleveland Center
08:38PM 40.7689 -78.8311 347° North 415 478 28,000  Level Cleveland Center
08:39PM 40.8839 -78.8667 347° North 415 478 28,000  Level Cleveland Center
08:40PM 40.9928 -78.9022 346° North 415 478 28,000  Level Cleveland Center
08:41PM 41.0875 -78.9633 334° Northwest 415 478 28,000  Level Cleveland Center
08:42PM 41.1458 -79.0969 300° West 371 427 28,000  Level Cleveland Center
08:43PM 41.1767 -79.2314 287° West 376 433 28,000  Level Cleveland Center
08:44PM 41.2008 -79.3494 285° West 371 427 28,000  Level Cleveland Center
08:45PM 41.2314 -79.4814 287° West 371 427 28,000  Level Cleveland Center
08:46PM 41.2533 -79.6136 282° West 371 427 28,000  Level Cleveland Center
08:47PM 41.2756 -79.7653 281° West 377 434 28,000  Level Cleveland Center
08:48PM 41.2889 -79.9033 277° West 377 434 28,000  Level Cleveland Center
08:49PM 41.2936 -80.0275 273° West 377 434 28,000  Level Cleveland Center
08:50PM 41.3006 -80.1714 274° West 382 440 28,000  Level Cleveland Center
08:51PM 41.3050 -80.3178 272° West 393 452 28,000  Level Cleveland Center
08:52PM 41.3117 -80.4614 274° West 399 459 28,000  Level Cleveland Center
08:53PM 41.3158 -80.6025 272° West 393 452 28,000  Level Cleveland Center
08:54PM 41.3200 -80.7436 272° West 388 447 28,000  Level Cleveland Center
08:55PM 41.3236 -80.9011 272° West 382 440 28,000  Level Cleveland Center
08:56PM 41.3294 -81.0450 273° West 388 447 28,000 -120 Level Cleveland Center
08:57PM 41.3581 -81.1861 285° West 388 447 27,800 -720 Descending Cleveland Center
08:58PM 41.3928 -81.3222 289° West 393 452 26,600 -1,200 Descending Cleveland Center
08:59PM 41.4250 -81.4525 288° West 393 452 25,400 -1,200 Descending Cleveland Center
09:00PM 41.4533 -81.5861 286° West 380 437 24,300 -720 Descending Cleveland Center
09:01PM 41.4853 -81.7142 288° West 380 437 24,000 -900 Descending Cleveland Center
09:02PM 41.5111 -81.8392 285° West 368 423 22,600 -1,560 Descending Cleveland Center
09:03PM 41.5389 -81.9592 287° West 357 411 20,900 -1,620 Descending Cleveland Center
09:04PM 41.5667 -82.0792 287° West 337 388 19,400 -1,620 Descending Cleveland Center
09:05PM 41.5922 -82.1906 287° West 329 379 17,700 -1,860 Descending Cleveland Center
09:06PM 41.6058 -82.2522 286° West 312 359 16,300 -2,400 Descending Cleveland Center
09:06PM 41.6178 -82.2969 290° West 314 361 15,300 -2,940 Descending Cleveland Center
09:07PM 41.6411 -82.4003 287° West 308 354 12,500 -1,680 Descending Cleveland Center
09:08PM 41.6644 -82.5039 287° West 300 345 12,000 -420 Descending Cleveland Center
09:08PM 41.6744 -82.5375 292° West 292 336 12,000  Level Cleveland Center
09:09PM 41.6856 -82.6072 282° West 295 339 12,000  Level Cleveland Center
09:10PM 41.7086 -82.7139 286° West 295 339 12,000  Level Cleveland Center
09:10PM 41.7167 -82.7392 293° West 294 338 12,000  Level Cleveland Center
09:11PM 41.7444 -82.8067 299° West 295 339 12,000 -300 Level Cleveland Center
09:11PM 41.7669 -82.8297 323° Northwest 303 349 11,700 -1,620 Descending Cleveland Center
09:12PM 41.8056 -82.8786 317° Northwest 285 328 10,400 -2,100 Descending Cleveland Center
09:12PM 41.8261 -82.8989 324° Northwest 273 314 9,600 -1,440 Descending Cleveland Center
09:13PM 41.8625 -82.9475 315° West 279 321 9,000 -600 Descending Cleveland Center
09:13PM 41.8808 -82.9706 317° Northwest 271 312 9,000 -420 Level Cleveland Center
09:14PM 41.8983 -83.0269 293° West 267 307 8,600 -1,200 Descending Cleveland Center
09:14PM 41.9081 -83.0608 291° West 243 280 7,700 -2,340 Descending Cleveland Center
09:15PM 41.9175 -83.1142 283° West 253 291 6,300 -1,680 Descending Cleveland Center
09:15PM 41.9269 -83.1564 287° West 246 283 6,000 -240 Descending Cleveland Center
09:16PM 41.9436 -83.2464 284° West 248 285 6,000 -780 Level Cleveland Center
09:17PM 41.9400 -83.3161 266° West 237 273 4,600 -1,140 Descending Cleveland Center
09:18PM 41.9481 -83.4058 277° West 234 269 4,000 -840 Descending Cleveland Center
09:19PM 41.9797 -83.4714 303° West 200 230 3,000 -540 Descending Cleveland Center
09:20PM 42.0278 -83.4764 356° North 168 193 3,000  Level Cleveland Center
09:21PM 42.0744 -83.4450 27° Northeast 176 203 3,000 -300 Level Cleveland Center
09:22PM 42.1169 -83.4133 29° Northeast 159 183 2,400 -660 Descending Cleveland Center
09:23PM 42.1508 -83.3867 30° Northeast 134 154 1,700 -780 Descending Cleveland Center
09:24PM 42.1806 -83.3656 28° Northeast 140 161 1,000 -780 Descending Cleveland Center